Time;durP1;ratioP1;P1;durP2;ratioP2;P2;SDS_P1;SDS_P2;PMS_P1;PMS_P2;Temp;Humidity;BMP_temperature;BMP_pressure;BME280_temperature;BME280_humidity;BME280_pressure;Samples;Min_cycle;Max_cycle;Signal;HPM_P1;HPM_P2
2021/03/12 00:01:42;;;;;;;;;;;;;;;5.58;100.00;99031.94;5071041;28;19973;-71
2021/03/12 00:04:08;;;;;;;;;;;;;;;5.64;100.00;99034.13;5071386;28;20298;-71
2021/03/12 00:06:34;;;;;;;;;;;;;;;5.67;100.00;99037.38;5070815;28;20279;-71
2021/03/12 00:09:00;;;;;;;;;;;;;;;5.70;100.00;99042.50;5071399;28;19994;-72
2021/03/12 00:11:26;;;;;;;;;;;;;;;5.71;100.00;99046.03;5071115;28;20378;-71
2021/03/12 00:13:51;;;;;;;;;;;;;;;5.73;100.00;99052.13;5071290;28;19974;-71
2021/03/12 00:16:17;;;;;;;;;;;;;;;5.73;100.00;99046.75;5053084;28;20374;-72
2021/03/12 00:18:45;;;;;;;;;;;;;;;5.78;100.00;99055.28;5070628;28;19924;-71
2021/03/12 00:21:12;;;;;;;;;;;;;;;5.81;100.00;99068.50;5071063;28;19921;-71
2021/03/12 00:23:40;;;;;;;;;;;;;;;5.80;100.00;99068.59;5071216;28;19924;-71
2021/03/12 00:26:06;;;;;;;;;;;;;;;5.83;100.00;99069.19;5053042;28;19960;-71
2021/03/12 00:28:34;;;;;;;;;;;;;;;5.83;100.00;99079.13;5053038;28;19989;-72
2021/03/12 00:31:00;;;;;;;;;;;;;;;5.88;100.00;99068.81;5071101;28;19920;-72
2021/03/12 00:33:28;;;;;;;;;;;;;;;5.89;100.00;99080.41;5071294;28;19927;-72
2021/03/12 00:35:54;;;;;;;;;;;;;;;5.94;100.00;99091.63;5070548;28;20393;-71
2021/03/12 00:38:21;;;;;;;;;;;;;;;5.94;100.00;99091.63;5071052;28;19920;-71
2021/03/12 00:40:50;;;;;;;;;;;;;;;5.95;100.00;99080.72;5053077;28;20361;-71
2021/03/12 00:43:16;;;;;;;;;;;;;;;5.97;100.00;99085.97;5070946;28;20018;-71
2021/03/12 00:45:44;;;;;;;;;;;;;;;5.91;100.00;99084.69;5053716;28;20340;-71
2021/03/12 00:48:15;;;;;;;;;;;;;;;5.85;100.00;99086.06;5057003;28;19924;-71
2021/03/12 00:50:41;;;;;;;;;;;;;;;5.80;100.00;99100.91;5040299;28;19927;-71
2021/03/12 00:53:10;;;;;;;;;;;;;;;5.75;100.00;99100.47;5056941;28;20041;-71
2021/03/12 00:55:37;;;;;;;;;;;;;;;5.70;100.00;99100.88;5074136;28;19955;-71
2021/03/12 00:58:04;;;;;;;;;;;;;;;5.69;100.00;99104.53;5040291;28;19968;-71
2021/03/12 01:00:32;;;;;;;;;;;;;;;5.66;100.00;99086.81;5056770;28;19966;-71
2021/03/12 01:03:05;;;;;;;;;;;;;;;5.68;100.00;99101.00;5056630;28;19920;-71
2021/03/12 01:05:31;;;;;;;;;;;;;;;5.61;100.00;99112.44;5074554;28;19978;-71
2021/03/12 01:07:58;;;;;;;;;;;;;;;5.60;100.00;99099.94;5056709;28;19924;-71
2021/03/12 01:10:28;;;;;;;;;;;;;;;5.57;100.00;99105.59;5056832;28;20332;-71
2021/03/12 01:12:56;;;;;;;;;;;;;;;5.55;100.00;99103.06;5039266;28;20341;-71
2021/03/12 01:15:23;;;;;;;;;;;;;;;5.57;100.00;99102.91;5056409;28;19920;-71
2021/03/12 01:17:52;;;;;;;;;;;;;;;5.57;100.00;99102.91;5056346;28;20378;-71
2021/03/12 01:20:20;;;;;;;;;;;;;;;5.53;100.00;99100.50;5056692;28;19947;-71
2021/03/12 01:22:46;;;;;;;;;;;;;;;5.50;100.00;99099.91;5056248;28;19964;-71
2021/03/12 01:25:14;;;;;;;;;;;;;;;5.51;100.00;99096.22;5056296;28;20465;-71
2021/03/12 01:27:40;;;;;;;;;;;;;;;5.46;100.00;99085.00;5074155;28;19921;-71
2021/03/12 01:30:12;;;;;;;;;;;;;;;5.40;100.00;99088.22;5074518;28;19927;-71
2021/03/12 01:32:38;;;;;;;;;;;;;;;5.36;100.00;99099.25;5056020;28;19921;-71
2021/03/12 01:35:05;;;;;;;;;;;;;;;5.35;100.00;99097.53;5056277;28;19943;-71
2021/03/12 01:37:35;;;;;;;;;;;;;;;5.34;100.00;99106.63;5055996;28;19955;-71
2021/03/12 01:40:03;;;;;;;;;;;;;;;5.30;100.00;99093.53;5074144;28;19960;-71
2021/03/12 01:42:34;;;;;;;;;;;;;;;5.21;100.00;99084.41;5039259;28;20499;-70
2021/03/12 01:45:01;;;;;;;;;;;;;;;5.09;100.00;99090.81;5060195;28;20287;-72
2021/03/12 01:47:28;;;;;;;;;;;;;;;5.01;100.00;99088.78;5063885;28;19924;-72
2021/03/12 01:49:54;;;;;;;;;;;;;;;4.98;100.00;99102.50;5073704;28;19920;-72
2021/03/12 01:52:20;;;;;;;;;;;;;;;4.91;100.00;99102.16;5072620;28;20401;-72
2021/03/12 01:54:46;;;;;;;;;;;;;;;4.89;100.00;99104.13;5072507;28;19920;-72
2021/03/12 01:57:14;;;;;;;;;;;;;;;4.86;100.00;99110.63;5071199;28;19928;-72
2021/03/12 01:59:46;;;;;;;;;;;;;;;4.83;100.00;99112.69;5073537;28;19956;-72
2021/03/12 02:02:25;;;;;;;;;;;;;;;4.88;100.00;99114.97;5072295;28;20016;-72
2021/03/12 02:05:02;;;;;;;;;;;;;;;4.92;100.00;99113.75;5072519;28;19928;-72
2021/03/12 02:07:29;;;;;;;;;;;;;;;5.00;100.00;99114.81;5071721;28;19991;-71
2021/03/12 02:10:21;;;;;;;;;;;;;;;5.12;100.00;99120.19;5055214;28;19924;-72
2021/03/12 02:12:54;;;;;;;;;;;;;;;5.13;100.00;99130.81;5072406;28;20303;-72
2021/03/12 02:15:26;;;;;;;;;;;;;;;5.20;100.00;99126.59;5054835;28;19928;-72
2021/03/12 02:17:56;;;;;;;;;;;;;;;5.31;100.00;99132.91;5055308;28;20449;-72
2021/03/12 02:20:38;;;;;;;;;;;;;;;5.39;100.00;99127.72;5073331;28;19924;-72
2021/03/12 02:23:11;;;;;;;;;;;;;;;5.40;100.00;99132.13;5073254;28;20027;-72
2021/03/12 02:25:38;;;;;;;;;;;;;;;5.40;100.00;99121.38;5072857;28;19926;-72
2021/03/12 02:28:08;;;;;;;;;;;;;;;5.39;100.00;99133.13;5054966;28;19920;-72
2021/03/12 02:30:35;;;;;;;;;;;;;;;5.41;100.00;99131.16;5055130;28;19928;-72
2021/03/12 02:33:01;;;;;;;;;;;;;;;5.40;100.00;99128.56;5055216;28;19928;-72
2021/03/12 02:35:35;;;;;;;;;;;;;;;5.36;100.00;99136.06;5054900;28;20015;-72
2021/03/12 02:38:28;;;;;;;;;;;;;;;5.36;100.00;99131.53;5055488;28;20002;-72
2021/03/12 02:40:59;;;;;;;;;;;;;;;5.28;100.00;99122.44;5054887;28;20370;-72
2021/03/12 02:43:28;;;;;;;;;;;;;;;5.20;100.00;99128.44;5054527;28;19920;-72
2021/03/12 02:45:55;;;;;;;;;;;;;;;5.13;100.00;99136.19;5054585;28;19924;-72
2021/03/12 02:48:25;;;;;;;;;;;;;;;5.07;100.00;99136.69;5054871;28;20004;-72
2021/03/12 02:50:52;;;;;;;;;;;;;;;5.01;100.00;99142.56;5054774;28;19966;-72
2021/03/12 02:53:23;;;;;;;;;;;;;;;4.94;100.00;99142.22;5054949;28;20011;-72
2021/03/12 02:55:54;;;;;;;;;;;;;;;4.84;100.00;99142.13;5054408;28;20055;-72
2021/03/12 02:58:21;;;;;;;;;;;;;;;4.75;100.00;99145.59;5054644;28;19927;-72
2021/03/12 03:00:48;;;;;;;;;;;;;;;4.72;100.00;99151.22;5053939;28;19970;-72
2021/03/12 03:03:48;;;;;;;;;;;;;;;4.70;100.00;99155.84;5054496;28;19927;-72
2021/03/12 03:06:28;;;;;;;;;;;;;;;4.68;100.00;99155.97;5054276;28;20305;-72
2021/03/12 03:08:54;;;;;;;;;;;;;;;4.66;100.00;99173.22;5072121;28;19931;-73
2021/03/12 03:11:21;;;;;;;;;;;;;;;4.66;100.00;99186.66;5072053;28;19928;-72
2021/03/12 03:13:49;;;;;;;;;;;;;;;4.67;100.00;99172.25;5054406;28;19920;-72
2021/03/12 03:16:17;;;;;;;;;;;;;;;4.69;100.00;99171.13;5053960;28;19927;-72
2021/03/12 03:18:44;;;;;;;;;;;;;;;4.66;100.00;99187.53;5071969;28;19932;-72
2021/03/12 03:21:10;;;;;;;;;;;;;;;4.68;100.00;99180.19;5053764;28;19920;-72
2021/03/12 03:23:37;;;;;;;;;;;;;;;4.67;100.00;99180.31;5054147;28;20325;-72
2021/03/12 03:26:03;;;;;;;;;;;;;;;4.65;100.00;99195.69;5053867;28;19928;-72
2021/03/12 03:28:35;;;;;;;;;;;;;;;4.70;100.00;99215.00;5054219;28;19978;-72
2021/03/12 03:31:02;;;;;;;;;;;;;;;4.68;100.00;99206.22;5053923;28;19952;-72
2021/03/12 03:33:29;;;;;;;;;;;;;;;4.66;100.00;99206.34;5053878;28;20019;-72
2021/03/12 03:35:57;;;;;;;;;;;;;;;4.64;100.00;99223.56;5053695;28;19927;-72
2021/03/12 03:38:23;;;;;;;;;;;;;;;4.58;100.00;99230.28;5071418;28;19920;-72
2021/03/12 03:40:49;;;;;;;;;;;;;;;4.55;100.00;99218.94;5053802;28;20266;-72
2021/03/12 03:43:16;;;;;;;;;;;;;;;4.52;100.00;99212.81;5053866;28;20030;-72
2021/03/12 03:45:43;;;;;;;;;;;;;;;4.46;100.00;99221.38;5071335;28;19989;-72
2021/03/12 03:48:24;;;;;;;;;;;;;;;4.42;100.00;99219.88;5053776;28;20068;-72
2021/03/12 03:50:53;;;;;;;;;;;;;;;4.43;100.00;99226.97;5053733;28;19959;-72
2021/03/12 03:53:20;;;;;;;;;;;;;;;4.43;100.00;99237.72;5053556;28;20367;-72
2021/03/12 03:55:47;;;;;;;;;;;;;;;4.41;100.00;99234.31;5053225;28;20019;-72
2021/03/12 03:58:14;;;;;;;;;;;;;;;4.38;100.00;99229.19;5053314;28;20186;-72
2021/03/12 04:00:40;;;;;;;;;;;;;;;4.32;100.00;99243.13;5053575;28;19920;-72
2021/03/12 04:03:10;;;;;;;;;;;;;;;4.26;100.00;99240.91;5053504;28;19920;-72
2021/03/12 04:05:46;;;;;;;;;;;;;;;4.21;100.00;99248.47;5053184;28;19920;-72
2021/03/12 04:08:13;;;;;;;;;;;;;;;4.17;100.00;99250.56;5036250;28;20397;-71
2021/03/12 04:10:39;;;;;;;;;;;;;;;4.12;100.00;99253.56;5053566;28;19920;-71
2021/03/12 04:13:05;;;;;;;;;;;;;;;4.09;100.00;99251.13;5053182;28;19920;-71
2021/03/12 04:15:32;;;;;;;;;;;;;;;4.13;100.00;99266.03;5071073;28;19973;-71
2021/03/12 04:17:58;;;;;;;;;;;;;;;4.13;100.00;99268.72;5053254;28;19920;-71
2021/03/12 04:20:26;;;;;;;;;;;;;;;4.16;100.00;99263.09;5070658;28;19927;-71
2021/03/12 04:22:56;;;;;;;;;;;;;;;4.17;100.00;99264.81;5053336;28;20352;-71
2021/03/12 04:25:26;;;;;;;;;;;;;;;4.17;100.00;99267.50;5071008;28;19927;-71
2021/03/12 04:27:52;;;;;;;;;;;;;;;4.17;100.00;99272.03;5071052;28;20029;-71
2021/03/12 04:30:19;;;;;;;;;;;;;;;4.16;100.00;99279.22;5053131;28;19960;-71
2021/03/12 04:32:45;;;;;;;;;;;;;;;4.17;100.00;99278.25;5070793;28;19921;-71
2021/03/12 04:35:11;;;;;;;;;;;;;;;4.17;100.00;99288.16;5053119;28;19920;-71
2021/03/12 04:37:39;;;;;;;;;;;;;;;4.11;100.00;99283.25;5070807;28;20366;-70
2021/03/12 04:40:09;;;;;;;;;;;;;;;4.02;100.00;99288.34;5053313;28;20283;-71
2021/03/12 04:42:41;;;;;;;;;;;;;;;3.97;100.00;99293.22;5053040;28;19921;-71
2021/03/12 04:45:09;;;;;;;;;;;;;;;3.91;100.00;99296.38;5053296;28;19920;-70
2021/03/12 04:47:40;;;;;;;;;;;;;;;3.84;100.00;99304.03;5052829;28;20073;-71
2021/03/12 04:50:09;;;;;;;;;;;;;;;3.92;100.00;99310.66;5054171;28;19945;-71
2021/03/12 04:52:36;;;;;;;;;;;;;;;3.99;100.00;99311.88;5054071;28;19920;-71
2021/03/12 04:55:02;;;;;;;;;;;;;;;4.02;100.00;99312.53;5053627;28;19944;-70
2021/03/12 04:57:28;;;;;;;;;;;;;;;4.06;100.00;99323.88;5054393;28;19925;-70
2021/03/12 04:59:55;;;;;;;;;;;;;;;4.10;100.00;99327.19;5071139;28;19959;-71
2021/03/12 05:02:21;;;;;;;;;;;;;;;4.12;100.00;99336.00;5071015;28;20258;-70
2021/03/12 05:04:50;;;;;;;;;;;;;;;4.15;100.00;99330.38;5052735;28;19920;-71
2021/03/12 05:07:17;;;;;;;;;;;;;;;4.14;100.00;99342.97;5052220;28;20382;-71
2021/03/12 05:09:57;;;;;;;;;;;;;;;4.14;100.00;99336.72;5052898;28;20382;-71
2021/03/12 05:12:25;;;;;;;;;;;;;;;4.13;100.00;99337.69;5052528;28;19959;-71
2021/03/12 05:14:52;;;;;;;;;;;;;;;4.06;100.00;99337.28;5053252;28;19920;-72
2021/03/12 05:17:21;;;;;;;;;;;;;;;3.98;100.00;99337.03;5055376;28;20005;-72
2021/03/12 05:19:46;;;;;;;;;;;;;;;3.93;100.00;99355.31;5069640;28;19946;-71
2021/03/12 05:22:12;;;;;;;;;;;;;;;3.88;100.00;99344.09;5088955;28;20402;-72
2021/03/12 05:24:39;;;;;;;;;;;;;;;3.82;100.00;99358.81;5054195;28;19935;-72
2021/03/12 05:27:06;;;;;;;;;;;;;;;3.84;100.00;99367.63;5053452;28;20457;-72
2021/03/12 05:29:39;;;;;;;;;;;;;;;3.81;100.00;99365.16;5053586;28;19927;-72
2021/03/12 05:32:05;;;;;;;;;;;;;;;3.84;100.00;99362.25;5041885;28;19920;-72
2021/03/12 05:34:35;;;;;;;6.93;2.80;;;;;;;3.94;100.00;99370.44;5074416;28;20453;-72
2021/03/12 05:37:01;;;;;;;10.03;2.67;;;;;;;4.02;100.00;99376.09;5068689;28;20451;-72
2021/03/12 05:39:27;;;;;;;8.20;2.75;;;;;;;4.09;100.00;99389.91;5075949;28;20430;-71
2021/03/12 05:41:54;;;;;;;6.28;2.72;;;;;;;4.13;100.00;99381.53;5073626;28;20764;-72
2021/03/12 05:44:28;;;;;;;10.73;3.30;;;;;;;4.21;100.00;99390.81;5064059;28;20431;-72
2021/03/12 05:46:57;;;;;;;7.97;3.40;;;;;;;4.24;100.00;99398.66;5064403;28;20432;-72
2021/03/12 05:49:23;;;;;;;8.27;3.83;;;;;;;4.28;100.00;99402.84;5084875;28;20425;-72
2021/03/12 05:51:50;;;;;;;10.80;4.05;;;;;;;4.30;100.00;99396.38;5073727;28;20425;-72
2021/03/12 05:54:16;;;;;;;;;;;;;;;4.15;100.00;99397.53;5092248;28;20406;-71
2021/03/12 05:56:43;;;;;;;;;;;;;;;4.09;100.00;99409.59;5075012;28;20161;-71
2021/03/12 05:59:11;;;;;;;;;;;;;;;4.05;100.00;99416.16;5075662;28;20385;-72
2021/03/12 06:01:38;;;;;;;;;;;;;;;4.05;100.00;99413.50;5068213;28;19952;-72
2021/03/12 06:04:04;;;;;;;;;;;;;;;4.06;100.00;99420.53;5055318;28;19932;-72
2021/03/12 06:06:30;;;;;;;;;;;;;;;4.04;100.00;99427.03;5054591;28;20435;-72
2021/03/12 06:08:59;;;;;;;;;;;;;;;4.03;100.00;99434.22;5072970;28;19992;-72
2021/03/12 06:11:25;;;;;;;;;;;;;;;4.02;100.00;99438.75;5038289;28;19924;-72
2021/03/12 06:13:52;;;;;;;;;;;;;;;3.99;100.00;99449.69;5073182;28;19920;-72
2021/03/12 06:16:48;;;;;;;12.88;5.85;;;;;;;4.10;100.00;99458.78;5062398;28;20441;-71
2021/03/12 06:19:16;;;;;;;9.23;6.20;;;;;;;4.16;100.00;99464.56;5070346;28;20504;-72
2021/03/12 06:21:45;;;;;;;11.23;6.05;;;;;;;4.29;100.00;99472.56;5070253;28;20455;-72
2021/03/12 06:24:23;;;;;;;14.68;6.47;;;;;;;4.31;100.00;99467.91;5070070;28;20938;-72
2021/03/12 06:26:59;;;;;;;12.13;5.82;;;;;;;4.25;100.00;99468.41;5069747;28;20529;-72
2021/03/12 06:29:33;;;;;;;;;;;;;;;4.08;100.00;99483.06;5056209;28;20537;-72
2021/03/12 06:32:08;;;;;;;;;;;;;;;3.95;100.00;99483.09;5067299;28;19924;-72
2021/03/12 06:34:59;;;;;;;;;;;;;;;3.90;100.00;99484.41;5063128;28;19920;-72
2021/03/12 06:37:45;;;;;;;;;;;;;;;3.88;100.00;99487.22;5058989;28;19996;-72
2021/03/12 06:40:33;;;;;;;;;;;;;;;3.91;100.00;99491.53;5056104;28;19928;-72
2021/03/12 06:43:12;;;;;;;;;;;;;;;3.96;100.00;99505.47;5053996;28;19926;-72
2021/03/12 06:45:54;;;;;;;;;;;;;;;3.98;100.00;99499.00;5041569;28;19931;-71
2021/03/12 06:48:25;;;;;;;;;;;;;;;4.00;100.00;99509.63;5071719;28;19928;-72
2021/03/12 06:50:58;;;;;;;;;;;;;;;4.04;100.00;99513.81;5067686;28;19966;-71
2021/03/12 06:53:25;;;;;;;;;;;;;;;4.17;100.00;99519.16;5053979;28;19982;-72
2021/03/12 06:55:53;;;;;;;;;;;;;;;4.23;100.00;99526.75;5060038;28;20022;-72
2021/03/12 06:58:30;;;;;;;;;;;;;;;4.25;100.00;99524.81;5073864;28;19935;-72
2021/03/12 07:01:17;;;;;;;;;;;;;;;4.27;100.00;99538.97;5072801;28;20374;-71
2021/03/12 07:03:43;;;;;;;;;;;;;;;4.38;100.00;99542.69;5074217;28;19920;-71
2021/03/12 07:06:34;;;;;;;;;;;;;;;4.53;100.00;99553.16;5060557;28;19927;-72
2021/03/12 07:09:05;;;;;;;;;;;;;;;4.69;100.00;99550.19;5055050;28;20298;-71
2021/03/12 07:11:53;;;;;;;;;;;;;;;4.80;100.00;99545.84;5053721;28;20019;-71
2021/03/12 07:14:38;;;;;;;;;;;;;;;4.78;100.00;99551.31;5080043;28;19970;-71
2021/03/12 07:17:14;;;;;;;;;;;;;;;4.79;100.00;99557.56;5073367;28;19920;-72
2021/03/12 07:19:40;;;;;;;;;;;;;;;4.74;100.00;99565.94;5048301;28;19926;-71
2021/03/12 07:22:09;;;;;;;;;;;;;;;4.65;100.00;99558.56;5054986;28;20394;-72
2021/03/12 07:24:40;;;;;;;;;;;;;;;4.62;100.00;99566.88;5053594;28;19920;-72
2021/03/12 07:27:10;;;;;;;;;;;;;;;4.77;100.00;99562.19;5056973;28;19924;-72
2021/03/12 07:29:57;;;;;;;;;;;;;;;4.71;100.00;99576.94;5067052;28;19963;-72
2021/03/12 07:32:33;;;;;;;;;;;;;;;4.69;100.00;99585.13;5073713;28;19923;-72
2021/03/12 07:35:03;;;;;;;;;;;;;;;4.80;100.00;99562.81;5081490;28;19920;-72
2021/03/12 07:37:47;;;;;;;;;;;;;;;4.72;100.00;99580.47;5053514;28;19952;-71
2021/03/12 07:40:15;;;;;;;;;;;;;;;4.76;100.00;99584.69;5053531;28;20454;-71
2021/03/12 07:42:42;;;;;;;;;;;;;;;4.64;100.00;99584.63;5053738;28;19924;-71
2021/03/12 07:45:17;;;;;;;;;;;;;;;4.64;100.00;99573.88;5070998;28;20352;-71
2021/03/12 07:48:01;;;;;;;;;;;;;;;4.55;100.00;99582.63;5065189;28;20574;-71
2021/03/12 07:50:37;;;;;;;;;;;;;;;4.47;100.00;99591.22;5050062;28;19924;-71
2021/03/12 07:53:08;;;;;;;;;;;;;;;5.03;100.00;99595.16;5053647;28;19927;-71
2021/03/12 07:55:50;;;;;;;;;;;;;;;5.47;100.00;99595.41;5059501;28;19927;-71
2021/03/12 07:58:51;;;;;;;;;;;;;;;5.34;100.00;99590.13;5053679;28;19924;-71
2021/03/12 08:01:23;;;;;;;;;;;;;;;5.29;100.00;99611.16;5054290;28;19920;-71
2021/03/12 08:03:54;;;;;;;;;;;;;;;5.52;100.00;99615.59;5053186;28;19921;-71
2021/03/12 08:06:29;;;;;;;;;;;;;;;5.60;100.00;99622.22;5061039;28;19928;-71
2021/03/12 08:09:19;;;;;;;;;;;;;;;5.65;100.00;99630.81;5071402;28;20420;-71
2021/03/12 08:11:57;;;;;;;;;;;;;;;5.65;100.00;99630.81;5053282;28;19920;-71
2021/03/12 08:14:42;;;;;;;;;;;;;;;5.68;100.00;99626.03;5053118;28;19931;-71
2021/03/12 08:17:19;;;;;;;;;;;;;;;5.65;100.00;99631.69;5036015;28;20296;-71
2021/03/12 08:20:29;;;;;;;;;;;;;;;5.76;100.00;99644.28;5061300;28;19920;-71
2021/03/12 08:23:13;;;;;;;;;;;;;;;5.71;100.00;99635.72;5061302;28;19921;-71
2021/03/12 08:25:44;;;;;;;;;;;;;;;5.62;100.00;99641.81;5060044;28;20370;-71
2021/03/12 08:28:27;;;;;;;;;;;;;;;5.65;100.00;99642.44;5054283;28;19920;-71
2021/03/12 08:31:02;;;;;;;;;;;;;;;5.77;100.00;99640.63;5058030;28;19963;-71
2021/03/12 08:33:54;;;;;;;;;;;;;;;5.77;100.00;99648.72;5046795;28;20023;-71
2021/03/12 08:36:37;;;;;;;;;;;;;;;5.80;100.00;99651.16;5062177;28;20411;-71
2021/03/12 08:39:24;;;;;;;;;;;;;;;5.76;100.00;99648.81;5077140;28;19938;-72
2021/03/12 08:42:10;;;;;;;;;;;;;;;5.76;100.00;99662.28;5071434;28;19920;-72
2021/03/12 08:44:50;;;;;;;;;;;;;;;5.78;100.00;99669.25;5055389;28;20376;-71
2021/03/12 08:47:24;;;;;;;;;;;;;;;5.91;100.00;99662.94;5068075;28;19993;-72
2021/03/12 08:49:53;;;;;;;;;;;;;;;5.99;100.00;99674.00;5089566;28;20289;-71
2021/03/12 08:52:25;;;;;;;;;;;;;;;5.95;100.00;99669.78;5052379;28;20267;-71
2021/03/12 08:55:02;;;;;;;;;;;;;;;5.88;100.00;99666.72;5058025;28;20270;-72
2021/03/12 08:57:31;;;;;;;;;;;;;;;5.82;100.00;99668.03;5068700;28;19935;-71
2021/03/12 09:00:09;;;;;;;;;;;;;;;5.58;100.00;99667.25;5051666;28;19920;-71
2021/03/12 09:03:14;;;;;;;;;;;;;;;5.45;100.00;99673.59;5066342;28;20435;-72
2021/03/12 09:05:43;;;;;;;;;;;;;;;5.53;100.00;99671.16;5063096;28;19920;-71
2021/03/12 09:08:31;;;;;;;;;;;;;;;5.57;100.00;99673.63;5072644;28;20074;-71
2021/03/12 09:11:24;;;;;;;;;;;;;;;5.67;100.00;99685.41;5066642;28;19920;-72
2021/03/12 09:13:58;;;;;;;;;;;;;;;6.00;100.00;99683.78;5056443;28;20026;-72
2021/03/12 09:16:26;;;;;;;;;;;;;;;6.75;100.00;99676.88;5035994;28;19978;-72
2021/03/12 09:18:54;;;;;;;;;;;;;;;7.18;100.00;99684.09;5040157;28;20039;-72
2021/03/12 09:21:29;;;;;;;;;;;;;;;7.45;100.00;99688.16;5055470;28;20366;-71
2021/03/12 09:23:59;;;;;;;;;;;;;;;7.06;100.00;99674.34;5056115;28;19920;-72
2021/03/12 09:26:31;;;;;;;;;;;;;;;6.83;100.00;99687.91;5055538;28;19971;-72
2021/03/12 09:29:07;;;;;;;;;;;;;;;6.81;100.00;99694.41;5075938;28;19920;-71
2021/03/12 09:31:35;;;;;;;;;;;;;;;7.30;100.00;99684.09;5073050;28;20345;-71
2021/03/12 09:34:24;;;;;;;;;;;;;;;7.57;100.00;99696.22;5062492;28;19920;-71
2021/03/12 09:37:02;;;;;;;;;;;;;;;7.58;100.00;99688.00;5069595;28;20401;-71
2021/03/12 09:39:54;;;;;;;;;;;;;;;6.97;100.00;99707.50;5070351;28;19928;-71
2021/03/12 09:42:31;;;;;;;;;;;;;;;6.74;100.00;99709.38;5059116;28;20336;-71
2021/03/12 09:45:19;;;;;;;;;;;;;;;6.67;100.00;99711.72;5071280;28;20005;-70
2021/03/12 09:47:47;;;;;;;;;;;;;;;7.25;100.00;99724.94;5056120;28;19924;-71
2021/03/12 09:50:16;;;;;;;;;;;;;;;7.93;100.00;99729.19;5055899;28;19947;-71
2021/03/12 09:52:56;;;;;;;;;;;;;;;8.83;100.00;99717.69;5055823;28;19928;-71
2021/03/12 09:55:45;;;;;;;;;;;;;;;9.49;100.00;99710.81;5073597;28;19920;-71
2021/03/12 09:58:16;;;;;;;;;;;;;;;9.76;100.00;99709.22;5093516;28;20384;-71
2021/03/12 10:01:09;;;;;;;;;;;;;;;9.97;100.00;99689.22;5055988;28;19928;-71
2021/03/12 10:03:36;;;;;;;;;;;;;;;9.92;100.00;99696.94;5055537;28;19932;-71
2021/03/12 10:06:08;;;;;;;;;;;;;;;9.46;100.00;99702.97;5058249;28;20013;-71
2021/03/12 10:09:01;;;;;;;;;;;;;;;9.05;100.00;99707.63;5075263;28;19919;-71
2021/03/12 10:11:44;;;;;;;;;;;;;;;8.64;100.00;99707.66;5075158;28;20431;-71
2021/03/12 10:14:30;;;;;;;;;;;;;;;8.62;100.00;99704.25;5073943;28;20285;-71
2021/03/12 10:17:15;;;;;;;;;;;;;;;8.59;100.00;99706.34;5070536;28;19920;-70
2021/03/12 10:19:47;;;;;;;;;;;;;;;8.59;100.00;99714.47;5055456;28;19920;-70
2021/03/12 10:22:16;;;;;;;;;;;;;;;8.29;100.00;99705.34;5083106;28;19920;-71
2021/03/12 10:24:41;;;;;;;;;;;;;;;8.21;100.00;99701.47;5073380;28;19974;-70
2021/03/12 10:27:07;;;;;;;;;;;;;;;8.48;100.00;99713.56;5062526;28;19924;-70
2021/03/12 10:29:37;;;;;;;;;;;;;;;8.82;100.00;99705.16;5074725;28;19924;-70
2021/03/12 10:32:06;;;;;;;;;;;;;;;8.62;100.00;99709.66;5077200;28;20313;-70
2021/03/12 10:34:42;;;;;;;;;;;;;;;8.13;100.00;99720.19;5072528;28;20304;-70
2021/03/12 10:37:11;;;;;;;;;;;;;;;7.88;100.00;99722.34;5076369;28;19943;-71
2021/03/12 10:39:42;;;;;;;;;;;;;;;7.99;100.00;99739.44;5081600;28;19939;-71
2021/03/12 10:42:08;;;;;;;;;;;;;;;8.61;100.00;99751.22;5075171;28;20493;-71
2021/03/12 10:44:47;;;;;;;;;;;;;;;9.30;100.00;99729.75;5072437;28;19950;-71
2021/03/12 10:47:13;;;;;;;;;;;;;;;9.81;100.00;99730.47;5036951;28;19920;-71
2021/03/12 10:49:39;;;;;;;;;;;;;;;10.02;100.00;99735.72;5054357;28;19947;-70
2021/03/12 10:52:05;;;;;;;;;;;;;;;9.60;100.00;99723.34;5072523;28;19967;-71
2021/03/12 10:54:31;;;;;;;;;;;;;;;8.81;100.00;99726.94;5055454;28;20243;-72
2021/03/12 10:56:58;;;;;;;;;;;;;;;8.27;100.00;99745.19;5072820;28;19974;-71
2021/03/12 10:59:23;;;;;;;;;;;;;;;8.39;100.00;99749.50;5074934;28;20492;-71
2021/03/12 11:01:50;;;;;;;10.98;3.35;;;;;;;8.69;100.00;99743.28;5053483;28;20738;-71
2021/03/12 11:04:16;;;;;;;;;;;;;;;8.26;100.00;99741.63;5074347;28;20419;-71
2021/03/12 11:06:43;;;;;;;11.88;3.25;;;;;;;8.36;100.00;99734.44;5079988;28;20452;-71
2021/03/12 11:09:09;;;;;;;9.57;3.20;;;;;;;8.58;100.00;99758.75;5070067;28;20465;-71
2021/03/12 11:11:35;;;;;;;;;;;;;;;9.19;99.89;99761.38;5053193;28;20424;-71
2021/03/12 11:14:02;;;;;;;;;;;;;;;9.87;93.23;99757.88;5081630;28;19927;-70
2021/03/12 11:16:28;;;;;;;;;;;;;;;9.11;87.87;99742.25;5075174;28;20026;-70
2021/03/12 11:18:55;;;;;;;;;;;;;;;8.79;88.45;99756.84;5071620;28;19934;-71
2021/03/12 11:21:20;;;;;;;;;;;;;;;8.51;88.76;99750.31;5071757;28;20031;-71
2021/03/12 11:23:46;;;;;;;;;;;;;;;8.20;91.08;99753.84;5071752;28;19920;-71
2021/03/12 11:26:12;;;;;;;;;;;;;;;8.09;95.08;99755.75;5072341;28;19927;-71
2021/03/12 11:28:38;;;;;;;;;;;;;;;7.91;95.08;99758.19;5078571;28;19920;-70
2021/03/12 11:31:06;;;;;;;;;;;;;;;8.16;97.24;99748.81;5078645;28;19927;-70
2021/03/12 11:33:31;;;;;;;;;;;;;;;8.82;94.65;99751.16;5071538;28;20382;-70
2021/03/12 11:35:58;;;;;;;;;;;;;;;9.11;94.30;99739.53;5072142;28;19920;-70
2021/03/12 11:38:24;;;;;;;;;;;;;;;9.65;90.04;99736.47;5071343;28;19928;-71
2021/03/12 11:40:49;;;;;;;;;;;;;;;9.84;85.36;99750.00;5077187;28;20326;-72
2021/03/12 11:43:15;;;;;;;;;;;;;;;9.51;85.32;99749.47;5071919;28;20416;-71
2021/03/12 11:45:41;;;;;;;;;;;;;;;9.13;86.34;99761.09;5070808;28;19924;-71
2021/03/12 11:48:08;;;;;;;;;;;;;;;8.76;88.46;99742.75;5071628;28;19929;-71
2021/03/12 11:50:35;;;;;;;;;;;;;;;8.36;91.12;99742.53;5072473;28;19920;-71
2021/03/12 11:53:01;;;;;;;;;;;;;;;8.13;94.85;99749.09;5071307;28;19924;-72
2021/03/12 11:55:27;;;;;;;;;;;;;;;8.06;98.15;99764.97;5070077;28;19920;-71
2021/03/12 11:57:53;;;;;;;;;;;;;;;7.95;99.82;99760.50;5069637;28;19924;-72
2021/03/12 12:00:20;;;;;;;;;;;;;;;7.91;99.91;99761.75;5069889;28;21510;-71
2021/03/12 12:02:46;;;;;;;;;;;;;;;7.81;98.38;99768.91;5072363;28;19936;-72
2021/03/12 12:05:14;;;;;;;;;;;;;;;7.87;98.79;99765.72;5059107;28;19924;-72
2021/03/12 12:07:40;;;;;;;;;;;;;;;7.85;96.42;99760.41;5090835;28;20041;-72
2021/03/12 12:10:06;;;;;;;;;;;;;;;7.95;96.32;99775.84;5085626;28;19958;-72
2021/03/12 12:12:32;;;;;;;;;;;;;;;8.03;96.42;99763.41;5071009;28;19928;-71
2021/03/12 12:14:58;;;;;;;;;;;;;;;8.06;93.80;99767.69;5057261;28;19938;-71
2021/03/12 12:17:24;;;;;;;;;;;;;;;8.02;92.58;99766.25;5090211;28;19924;-72
2021/03/12 12:19:50;;;;;;;;;;;;;;;7.98;93.01;99752.13;5089060;28;20356;-72
2021/03/12 12:22:17;;;;;;;;;;;;;;;8.01;93.84;99764.50;5071121;28;19932;-72
2021/03/12 12:24:43;;;;;;;;;;;;;;;8.41;92.91;99755.66;5072176;28;20041;-71
2021/03/12 12:27:09;;;;;;;;;;;;;;;8.51;91.73;99759.31;5070098;28;20376;-72
2021/03/12 12:29:35;;;;;;;;;;;;;;;8.40;91.78;99745.81;5072290;28;19935;-72
2021/03/12 12:32:01;;;;;;;;;;;;;;;8.42;93.19;99751.97;5070999;28;20298;-72
2021/03/12 12:34:27;;;;;;;;;;;;;;;8.41;94.02;99744.84;5070874;28;19932;-72
2021/03/12 12:36:53;;;;;;;;;;;;;;;8.31;93.93;99747.50;5076990;28;19936;-72
2021/03/12 12:39:20;;;;;;;;;;;;;;;8.19;94.46;99749.41;5052877;28;19924;-71
2021/03/12 12:41:46;;;;;;;;;;;;;;;8.12;94.27;99736.56;5072857;28;20420;-72
2021/03/12 12:44:13;;;;;;;;;;;;;;;8.11;95.54;99745.66;5074739;28;19924;-71
2021/03/12 12:46:39;;;;;;;;;;;;;;;8.23;95.37;99735.63;5074576;28;19934;-71
2021/03/12 12:49:05;;;;;;;;;;;;;;;8.24;94.12;99732.78;5075016;28;20381;-71
2021/03/12 12:51:31;;;;;;;;;;;;;;;8.14;92.99;99737.28;5077221;28;19959;-71
2021/03/12 12:53:57;;;;;;;;;;;;;;;8.68;97.56;99733.44;5094714;28;19924;-72
2021/03/12 12:56:24;;;;;;;;;;;;;;;9.59;89.73;99735.19;5092178;28;19924;-71
2021/03/12 12:58:51;;;;;;;;;;;;;;;10.11;81.70;99734.00;5073865;28;19982;-71
2021/03/12 13:01:17;;;;;;;;;;;;;;;10.16;82.67;99727.13;5074208;28;19932;-71
2021/03/12 13:03:42;;;;;;;;;;;;;;;9.85;82.91;99724.63;5074506;28;19925;-71